createdAt,value
2018-03-01T21:44:17.525Z,9.33
2018-03-01T21:46:57.931Z,8.80
2018-03-01T21:49:27.058Z,10.43
2018-03-01T21:51:55.413Z,9.30
2018-03-01T21:54:23.934Z,9.40
2018-03-01T21:56:52.547Z,9.87
2018-03-01T21:59:21.025Z,9.53
2018-03-01T22:01:49.390Z,9.57
2018-03-01T22:04:17.735Z,10.10
2018-03-01T22:06:46.133Z,10.07
2018-03-01T22:09:14.497Z,10.13
2018-03-01T22:11:42.845Z,10.30
2018-03-01T22:14:11.212Z,11.57
2018-03-01T22:16:40.348Z,11.27
2018-03-01T22:19:08.779Z,10.77
2018-03-01T22:21:37.936Z,11.20
2018-03-01T22:24:06.287Z,10.33
2018-03-01T22:26:34.909Z,11.87
2018-03-01T22:29:03.711Z,10.60
2018-03-01T22:31:32.495Z,10.80
2018-03-01T22:34:00.886Z,11.37
2018-03-01T22:36:30.579Z,11.03
2018-03-01T22:38:59.248Z,11.83
2018-03-01T22:41:28.109Z,11.83
2018-03-01T22:43:56.489Z,11.83
2018-03-01T22:46:25.040Z,11.90
2018-03-01T22:48:54.508Z,11.80
2018-03-01T22:51:22.900Z,12.50
2018-03-01T22:53:51.248Z,11.53
2018-03-01T22:56:19.669Z,11.43
2018-03-01T22:58:48.820Z,11.93
2018-03-01T23:01:17.181Z,12.30
2018-03-01T23:03:45.704Z,12.30
2018-03-01T23:06:14.051Z,12.13
2018-03-01T23:08:43.758Z,13.17
2018-03-01T23:11:12.214Z,12.03
2018-03-01T23:13:40.578Z,11.97
2018-03-01T23:16:10.159Z,13.30
2018-03-01T23:18:38.819Z,13.02
2018-03-01T23:21:08.226Z,12.73
2018-03-01T23:23:36.565Z,13.13
2018-03-01T23:26:04.932Z,13.40
2018-03-01T23:28:33.715Z,13.80
2018-03-01T23:31:02.163Z,13.85
2018-03-01T23:33:31.139Z,12.73
2018-03-01T23:35:59.625Z,13.83
2018-03-01T23:38:28.454Z,13.10
2018-03-01T23:40:56.856Z,13.47
2018-03-01T23:43:25.344Z,13.50
2018-03-01T23:45:53.684Z,13.23
2018-03-01T23:48:23.333Z,12.73
2018-03-01T23:50:52.560Z,13.23
2018-03-01T23:53:21.697Z,14.10
2018-03-01T23:55:50.395Z,14.13
2018-03-01T23:58:18.804Z,13.87
